createdAt,value
2022-11-19T00:02:17.880Z,3.25
2022-11-19T00:05:05.129Z,3.17
2022-11-19T00:07:52.814Z,2.42
2022-11-19T00:10:40.202Z,3.45
2022-11-19T00:13:27.200Z,2.50
2022-11-19T00:16:14.685Z,1.98
2022-11-19T00:19:01.654Z,2.20
2022-11-19T00:21:50.133Z,2.38
2022-11-19T00:24:37.051Z,2.97
2022-11-19T00:27:24.213Z,2.13
2022-11-19T00:30:32.812Z,2.53
2022-11-19T00:33:19.015Z,1.90
2022-11-19T00:36:08.358Z,1.75
2022-11-19T00:38:55.749Z,1.88
2022-11-19T00:41:42.718Z,2.20
2022-11-19T00:44:35.630Z,2.60
2022-11-19T00:47:24.095Z,2.50
2022-11-19T00:50:11.190Z,1.88
2022-11-19T00:52:59.584Z,1.90
2022-11-19T00:55:46.724Z,2.40
2022-11-19T00:58:34.258Z,2.42
2022-11-19T01:01:23.656Z,2.63
2022-11-19T01:04:10.763Z,2.30
2022-11-19T01:06:57.969Z,1.90
2022-11-19T01:09:47.301Z,2.17
2022-11-19T01:12:54.330Z,2.30
2022-11-19T01:15:41.327Z,1.92
2022-11-19T01:18:28.909Z,2.22
2022-11-19T01:21:17.164Z,2.28
2022-11-19T01:24:04.877Z,2.38
2022-11-19T01:26:51.841Z,2.20
2022-11-19T01:29:38.972Z,2.30
2022-11-19T01:32:25.885Z,1.92
2022-11-19T01:35:12.863Z,1.70
2022-11-19T01:38:01.076Z,1.65
2022-11-19T01:40:48.202Z,1.90
2022-11-19T01:43:52.997Z,1.80
2022-11-19T01:46:40.133Z,1.90
2022-11-19T01:49:27.194Z,1.35
2022-11-19T01:52:14.338Z,1.55
2022-11-19T01:55:02.070Z,1.63
2022-11-19T01:57:54.610Z,1.60
2022-11-19T02:00:41.701Z,2.13
2022-11-19T02:03:31.133Z,1.70
2022-11-19T02:06:18.244Z,1.10
2022-11-19T02:09:05.374Z,1.35
2022-11-19T02:12:08.776Z,1.60
2022-11-19T02:15:31.205Z,1.25
2022-11-19T02:18:47.035Z,1.42
2022-11-19T02:21:40.637Z,1.33
2022-11-19T02:24:42.849Z,1.08
2022-11-19T02:28:18.589Z,1.48
2022-11-19T02:31:26.925Z,1.20
2022-11-19T02:34:24.696Z,1.60
2022-11-19T02:37:34.970Z,1.30
2022-11-19T02:40:30.342Z,1.45
2022-11-19T02:43:23.291Z,1.20
2022-11-19T02:49:01.921Z,1.40
2022-11-19T02:51:50.538Z,1.20
2022-11-19T02:54:37.563Z,14.77
2022-11-19T02:57:24.724Z,3.90
2022-11-19T03:00:31.230Z,3.67
2022-11-19T03:03:40.018Z,3.50
2022-11-19T03:06:32.575Z,8.10
2022-11-19T03:09:20.284Z,45.55
2022-11-19T03:12:22.786Z,12.70
2022-11-19T03:16:02.619Z,1.90
2022-11-19T03:19:06.145Z,1.80
2022-11-19T03:22:03.798Z,1.70
2022-11-19T03:24:57.276Z,1.40
2022-11-19T03:27:50.792Z,2.08
2022-11-19T03:30:40.139Z,1.23
2022-11-19T03:33:33.281Z,1.52
2022-11-19T03:36:32.397Z,1.40
2022-11-19T03:39:21.616Z,1.58
2022-11-19T03:42:13.178Z,1.95
2022-11-19T03:45:05.022Z,2.42
2022-11-19T03:47:53.801Z,2.45
2022-11-19T03:50:58.058Z,2.67
2022-11-19T03:53:45.159Z,2.92
2022-11-19T03:56:36.914Z,2.40
2022-11-19T03:59:29.220Z,2.10
2022-11-19T04:02:17.118Z,2.47
2022-11-19T04:05:04.558Z,2.83
2022-11-19T04:07:51.707Z,2.47
2022-11-19T04:10:38.965Z,2.38
2022-11-19T04:13:25.942Z,2.83
2022-11-19T04:16:13.114Z,2.70
2022-11-19T04:19:00.277Z,2.58
2022-11-19T04:21:47.354Z,2.28
2022-11-19T04:24:34.285Z,2.50
2022-11-19T04:27:21.528Z,3.00
2022-11-19T04:30:09.774Z,4.93
2022-11-19T04:32:56.725Z,8.77
2022-11-19T04:35:46.485Z,14.10
2022-11-19T04:38:34.837Z,14.85
2022-11-19T04:41:21.956Z,15.40
2022-11-19T04:44:08.929Z,16.02
2022-11-19T04:46:55.988Z,17.33
2022-11-19T04:49:43.156Z,16.02
2022-11-19T04:52:34.148Z,19.23
2022-11-19T04:55:24.726Z,18.45
2022-11-19T04:58:11.643Z,18.77
2022-11-19T05:00:58.808Z,18.20
2022-11-19T05:03:46.534Z,17.65
2022-11-19T05:06:33.606Z,19.08
2022-11-19T05:09:20.816Z,18.70
2022-11-19T05:12:08.307Z,17.98
2022-11-19T05:14:55.425Z,18.45
2022-11-19T05:17:42.391Z,17.92
2022-11-19T05:20:29.293Z,17.35
2022-11-19T05:23:16.475Z,16.58
2022-11-19T05:26:03.758Z,16.25
2022-11-19T05:28:50.726Z,15.68
2022-11-19T05:31:37.644Z,15.45
2022-11-19T05:34:24.816Z,14.25
2022-11-19T05:37:11.937Z,15.52
2022-11-19T05:39:58.820Z,14.95
2022-11-19T05:42:45.758Z,15.82
2022-11-19T05:45:33.444Z,15.60
2022-11-19T05:48:20.563Z,17.73
2022-11-19T05:51:07.541Z,17.13
2022-11-19T05:53:54.509Z,17.08
2022-11-19T05:56:41.725Z,17.23
2022-11-19T05:59:28.887Z,16.92
2022-11-19T06:02:15.797Z,18.17
2022-11-19T06:05:02.930Z,15.80
2022-11-19T06:07:50.108Z,17.20
2022-11-19T06:10:37.267Z,16.08
2022-11-19T06:13:24.282Z,16.10
2022-11-19T06:16:11.203Z,15.90
2022-11-19T06:18:58.361Z,24.83
2022-11-19T06:21:45.838Z,70.32
2022-11-19T06:24:32.814Z,144.98
2022-11-19T06:27:19.740Z,187.57
2022-11-19T06:30:07.895Z,40.30
2022-11-19T06:32:54.988Z,36.15
2022-11-19T06:35:41.940Z,26.75
2022-11-19T06:38:29.332Z,18.77
2022-11-19T06:41:16.966Z,17.58
2022-11-19T06:44:04.175Z,18.25
2022-11-19T06:46:51.149Z,17.45
2022-11-19T06:49:38.073Z,15.88
2022-11-19T06:52:25.684Z,16.50
2022-11-19T06:55:13.517Z,15.73
2022-11-19T06:58:04.442Z,17.63
2022-11-19T07:00:51.510Z,19.25
2022-11-19T07:03:38.874Z,17.08
2022-11-19T07:06:25.966Z,18.13
2022-11-19T07:09:12.851Z,18.40
2022-11-19T07:11:59.763Z,18.15
2022-11-19T07:14:46.906Z,19.90
2022-11-19T07:17:34.219Z,19.17
2022-11-19T07:20:21.237Z,16.92
2022-11-19T07:23:11.294Z,20.90
2022-11-19T07:26:01.819Z,19.20
2022-11-19T07:28:48.999Z,23.90
2022-11-19T07:31:36.058Z,20.20
2022-11-19T07:34:23.029Z,20.75
2022-11-19T07:37:10.176Z,20.83
2022-11-19T07:39:57.090Z,21.67
2022-11-19T07:42:50.262Z,21.75
2022-11-19T07:45:37.865Z,21.17
2022-11-19T07:48:24.782Z,22.60
2022-11-19T07:51:11.801Z,22.45
2022-11-19T07:53:58.773Z,20.73
2022-11-19T07:56:46.017Z,20.95
2022-11-19T07:59:33.996Z,20.33
2022-11-19T08:02:21.111Z,22.58
2022-11-19T08:05:08.588Z,23.60
2022-11-19T08:07:55.480Z,22.60
2022-11-19T08:10:42.628Z,21.27
2022-11-19T08:13:29.737Z,20.98
2022-11-19T08:16:35.662Z,22.23
2022-11-19T08:19:23.133Z,20.17
2022-11-19T08:22:13.656Z,20.02
2022-11-19T08:25:00.782Z,19.30
2022-11-19T08:27:47.700Z,20.73
2022-11-19T08:30:34.648Z,21.67
2022-11-19T08:33:21.833Z,22.65
2022-11-19T08:36:08.781Z,20.42
2022-11-19T08:39:00.428Z,20.42
2022-11-19T08:42:05.934Z,20.75
2022-11-19T08:44:54.941Z,21.10
2022-11-19T08:47:41.906Z,22.42
2022-11-19T08:50:29.710Z,22.40
2022-11-19T08:53:16.607Z,21.75
2022-11-19T08:56:03.697Z,22.23
2022-11-19T08:58:52.895Z,22.23
2022-11-19T09:01:40.057Z,23.33
2022-11-19T09:04:27.006Z,21.50
2022-11-19T09:07:14.022Z,24.40
2022-11-19T09:10:01.198Z,21.88
2022-11-19T09:12:49.403Z,22.27
2022-11-19T09:15:36.332Z,21.83
2022-11-19T09:18:23.481Z,24.92
2022-11-19T09:21:12.017Z,23.00
2022-11-19T09:23:58.977Z,25.92
2022-11-19T09:26:51.695Z,23.90
2022-11-19T09:29:39.952Z,23.10
2022-11-19T09:32:28.512Z,27.05
2022-11-19T09:35:16.190Z,23.48
2022-11-19T09:38:03.088Z,23.92
2022-11-19T09:40:53.985Z,22.80
2022-11-19T09:44:28.793Z,24.02
2022-11-19T09:47:55.911Z,22.73
2022-11-19T09:51:10.149Z,23.77
2022-11-19T09:54:17.701Z,25.20
2022-11-19T09:57:12.014Z,25.42
2022-11-19T10:00:01.812Z,25.20
2022-11-19T10:02:49.789Z,24.35
2022-11-19T10:06:17.609Z,25.10
2022-11-19T10:09:33.106Z,24.08
2022-11-19T10:13:12.009Z,25.67
2022-11-19T10:16:28.437Z,24.10
2022-11-19T10:19:51.584Z,23.63
2022-11-19T10:23:00.157Z,23.95
2022-11-19T10:25:50.034Z,25.70
2022-11-19T10:28:40.797Z,22.98
2022-11-19T10:31:39.685Z,28.10
2022-11-19T10:34:33.722Z,24.58
2022-11-19T10:37:23.725Z,25.60
2022-11-19T10:40:20.976Z,24.98
2022-11-19T10:43:26.401Z,22.58
2022-11-19T10:46:17.086Z,26.10
2022-11-19T10:49:04.860Z,26.02
2022-11-19T10:51:52.037Z,24.25
2022-11-19T10:54:39.972Z,25.73
2022-11-19T10:57:30.355Z,69.95
2022-11-19T11:00:18.310Z,35.47
2022-11-19T11:03:13.040Z,44.03
2022-11-19T11:06:05.235Z,28.58
2022-11-19T11:08:56.413Z,25.17
2022-11-19T11:12:05.002Z,53.50
2022-11-19T11:14:52.623Z,34.67
2022-11-19T11:17:42.577Z,33.85
2022-11-19T11:20:30.994Z,43.35
2022-11-19T11:23:24.058Z,31.17
2022-11-19T11:26:17.757Z,26.00
2022-11-19T11:29:33.777Z,33.75
2022-11-19T11:32:30.935Z,25.98
2022-11-19T11:35:38.712Z,26.08
2022-11-19T11:38:27.593Z,24.23
2022-11-19T11:42:03.785Z,26.23
2022-11-19T11:44:35.725Z,27.15
2022-11-19T11:47:36.840Z,25.70
2022-11-19T11:50:28.493Z,25.17
2022-11-19T11:53:27.596Z,26.95
2022-11-19T11:56:21.422Z,27.13
2022-11-19T11:59:28.416Z,26.52
2022-11-19T12:02:27.100Z,26.00
2022-11-19T12:05:18.138Z,23.52
2022-11-19T12:08:11.153Z,24.90
2022-11-19T12:14:11.739Z,25.45
2022-11-19T12:17:32.861Z,26.58
2022-11-19T12:20:44.474Z,28.23
2022-11-19T12:24:00.282Z,28.33
2022-11-19T12:27:22.362Z,29.13
2022-11-19T12:30:27.954Z,26.77
2022-11-19T12:33:57.576Z,28.70
2022-11-19T12:37:09.975Z,26.35
2022-11-19T12:40:25.509Z,27.88
2022-11-19T12:43:34.692Z,26.40
2022-11-19T12:46:57.726Z,24.83
2022-11-19T12:50:16.067Z,24.80
2022-11-19T12:53:18.837Z,25.92
2022-11-19T12:57:01.014Z,28.38
2022-11-19T13:00:21.080Z,26.73
2022-11-19T13:03:24.837Z,25.33
2022-11-19T13:06:27.805Z,26.33
2022-11-19T13:09:47.213Z,26.52
2022-11-19T13:12:41.486Z,24.55
2022-11-19T13:15:58.776Z,28.02
2022-11-19T13:18:50.037Z,23.98
2022-11-19T13:22:15.385Z,25.33
2022-11-19T13:25:46.290Z,26.02
2022-11-19T13:28:42.613Z,23.40
2022-11-19T13:31:40.562Z,22.08
2022-11-19T13:35:04.748Z,25.35
2022-11-19T13:38:07.340Z,24.48
2022-11-19T13:41:07.205Z,24.45
2022-11-19T13:44:16.859Z,23.40
2022-11-19T13:47:09.022Z,23.63
2022-11-19T13:50:15.029Z,21.73
2022-11-19T13:53:12.674Z,23.38
2022-11-19T13:56:00.523Z,22.52
2022-11-19T13:58:54.919Z,23.23
2022-11-19T14:02:12.549Z,21.98
2022-11-19T14:05:42.678Z,22.17
2022-11-19T14:09:08.452Z,24.60
2022-11-19T14:12:29.596Z,24.00
2022-11-19T14:15:55.043Z,23.58
2022-11-19T14:19:07.687Z,22.23
2022-11-19T14:22:13.354Z,23.88
2022-11-19T14:25:18.998Z,25.40
2022-11-19T14:28:40.556Z,25.17
2022-11-19T14:31:27.510Z,24.00
2022-11-19T14:34:29.025Z,25.90
2022-11-19T14:37:39.928Z,25.35
2022-11-19T14:40:29.701Z,23.52
2022-11-19T14:43:46.220Z,25.35
2022-11-19T14:46:33.135Z,25.55
2022-11-19T14:49:35.705Z,23.58
2022-11-19T14:52:29.787Z,25.10
2022-11-19T14:55:21.577Z,24.05
2022-11-19T14:58:21.523Z,25.27
2022-11-19T15:01:20.860Z,23.90
2022-11-19T15:04:12.756Z,23.60
2022-11-19T15:07:01.597Z,24.23
2022-11-19T15:10:27.202Z,24.55
2022-11-19T15:13:25.974Z,22.67
2022-11-19T15:16:34.218Z,24.58
2022-11-19T15:20:04.986Z,25.30
2022-11-19T15:23:19.964Z,24.52
2022-11-19T15:27:14.762Z,21.63
2022-11-19T15:30:54.005Z,20.05
2022-11-19T15:37:08.650Z,22.20
2022-11-19T15:39:57.640Z,24.35
2022-11-19T15:42:52.982Z,23.30
2022-11-19T15:45:47.087Z,23.98
2022-11-19T15:48:42.741Z,24.20
2022-11-19T15:51:35.074Z,22.48
2022-11-19T15:54:30.396Z,23.35
2022-11-19T15:57:23.721Z,22.50
2022-11-19T16:00:17.629Z,25.58
2022-11-19T16:03:10.103Z,24.17
2022-11-19T16:06:08.863Z,24.70
2022-11-19T16:09:04.771Z,26.33
2022-11-19T16:12:11.226Z,25.00
2022-11-19T16:15:16.975Z,26.23
2022-11-19T16:18:03.952Z,25.77
2022-11-19T16:20:52.546Z,25.90
2022-11-19T16:24:00.526Z,25.58
2022-11-19T16:26:48.583Z,25.42
2022-11-19T16:29:40.389Z,26.17
2022-11-19T16:32:27.903Z,26.08
2022-11-19T16:35:24.619Z,26.00
2022-11-19T16:38:19.998Z,24.15
2022-11-19T16:41:26.467Z,25.67
2022-11-19T16:44:16.807Z,26.58
2022-11-19T16:47:06.685Z,27.80
2022-11-19T16:50:24.653Z,26.25
2022-11-19T16:53:11.566Z,26.45
2022-11-19T16:55:58.809Z,26.17
2022-11-19T16:58:46.363Z,26.25
2022-11-19T17:01:34.060Z,25.83
2022-11-19T17:04:23.912Z,28.05
2022-11-19T17:07:14.552Z,25.35
2022-11-19T17:10:35.337Z,28.45
2022-11-19T17:13:32.381Z,26.83
2022-11-19T17:16:22.675Z,28.35
2022-11-19T17:19:36.471Z,28.27
2022-11-19T17:22:28.465Z,29.40
2022-11-19T17:25:19.825Z,29.92
2022-11-19T17:28:06.802Z,27.92
2022-11-19T17:30:54.649Z,27.63
2022-11-19T17:34:07.072Z,28.08
2022-11-19T17:36:53.998Z,26.57
2022-11-19T17:39:40.933Z,27.30
2022-11-19T17:42:46.731Z,25.88
2022-11-19T17:45:33.712Z,25.20
2022-11-19T17:48:26.126Z,27.83
2022-11-19T17:51:15.764Z,25.95
2022-11-19T17:54:02.698Z,27.77
2022-11-19T17:56:49.843Z,219.05
2022-11-19T17:59:36.771Z,126.57
2022-11-19T18:02:23.697Z,42.42
2022-11-19T18:05:18.681Z,30.38
2022-11-19T18:08:05.855Z,29.27
2022-11-19T18:10:52.876Z,27.38
2022-11-19T18:13:41.203Z,30.05
2022-11-19T18:16:34.051Z,29.88
2022-11-19T18:19:26.788Z,33.17
2022-11-19T18:25:14.646Z,28.55
2022-11-19T18:28:01.632Z,29.23
2022-11-19T18:30:48.569Z,28.00
2022-11-19T18:33:36.525Z,29.83
2022-11-19T18:36:25.034Z,28.05
2022-11-19T18:39:12.219Z,29.33
2022-11-19T18:41:59.377Z,28.70
2022-11-19T18:44:46.356Z,29.40
2022-11-19T18:47:33.330Z,27.85
2022-11-19T18:50:25.466Z,26.67
2022-11-19T18:53:16.788Z,28.20
2022-11-19T18:56:04.914Z,27.10
2022-11-19T18:58:52.222Z,29.35
2022-11-19T19:01:39.212Z,27.90
2022-11-19T19:04:26.425Z,28.08
2022-11-19T19:07:13.435Z,29.30
2022-11-19T19:10:00.365Z,29.13
2022-11-19T19:12:47.333Z,26.63
2022-11-19T19:15:34.325Z,28.92
2022-11-19T19:18:21.266Z,28.83
2022-11-19T19:21:19.756Z,29.40
2022-11-19T19:24:07.321Z,29.48
2022-11-19T19:26:54.491Z,27.83
2022-11-19T19:29:42.000Z,27.92
2022-11-19T19:32:28.908Z,30.17
2022-11-19T19:35:16.077Z,30.27
2022-11-19T19:38:03.168Z,28.88
2022-11-19T19:40:50.239Z,29.80
2022-11-19T19:43:37.271Z,30.20
2022-11-19T19:46:24.471Z,28.70
2022-11-19T19:49:11.408Z,29.48
2022-11-19T19:51:58.338Z,26.85
2022-11-19T19:54:45.494Z,28.73
2022-11-19T19:57:32.517Z,31.50
2022-11-19T20:00:19.820Z,33.75
2022-11-19T20:03:06.909Z,29.70
2022-11-19T20:05:53.823Z,29.92
2022-11-19T20:08:42.158Z,28.70
2022-11-19T20:11:29.160Z,28.55
2022-11-19T20:14:16.118Z,31.38
2022-11-19T20:17:03.066Z,30.75
2022-11-19T20:19:49.987Z,28.42
2022-11-19T20:22:37.118Z,26.35
2022-11-19T20:25:24.234Z,32.45
2022-11-19T20:28:11.287Z,29.00
2022-11-19T20:31:09.653Z,29.77
2022-11-19T20:33:59.417Z,29.15
2022-11-19T20:36:46.541Z,28.52
2022-11-19T20:39:33.446Z,30.17
2022-11-19T20:42:38.905Z,29.08
2022-11-19T20:45:26.121Z,27.40
2022-11-19T20:48:13.066Z,29.70
2022-11-19T20:50:59.935Z,29.80
2022-11-19T20:53:47.090Z,27.48
2022-11-19T20:56:34.448Z,28.98
2022-11-19T20:59:22.217Z,30.17
2022-11-19T21:02:09.925Z,29.85
2022-11-19T21:04:57.358Z,27.45
2022-11-19T21:07:44.498Z,28.23
2022-11-19T21:10:31.695Z,28.40
2022-11-19T21:13:18.603Z,31.17
2022-11-19T21:16:33.005Z,30.63
2022-11-19T21:19:20.434Z,28.60
2022-11-19T21:22:07.832Z,30.10
2022-11-19T21:24:54.750Z,30.20
2022-11-19T21:27:41.880Z,29.00
2022-11-19T21:30:28.931Z,39.03
2022-11-19T21:33:15.851Z,31.52
2022-11-19T21:36:03.709Z,30.85
2022-11-19T21:38:50.642Z,28.33
2022-11-19T21:41:38.207Z,29.42
2022-11-19T21:44:25.416Z,68.30
2022-11-19T21:47:12.353Z,32.30
2022-11-19T21:50:00.779Z,37.20
2022-11-19T21:52:47.847Z,37.25
2022-11-19T21:55:34.889Z,44.63
2022-11-19T21:58:21.817Z,46.30
2022-11-19T22:01:11.210Z,43.78
2022-11-19T22:03:58.425Z,29.40
2022-11-19T22:06:45.346Z,30.60
2022-11-19T22:09:32.202Z,31.48
2022-11-19T22:12:19.116Z,30.35
2022-11-19T22:15:07.346Z,33.80
2022-11-19T22:17:55.208Z,30.48
2022-11-19T22:20:43.289Z,29.60
2022-11-19T22:23:30.440Z,33.45
2022-11-19T22:26:17.397Z,30.55
2022-11-19T22:29:04.361Z,32.78
2022-11-19T22:31:51.474Z,29.83
2022-11-19T22:34:38.417Z,35.75
2022-11-19T22:37:25.566Z,34.03
2022-11-19T22:40:13.193Z,31.70
2022-11-19T22:43:00.114Z,29.95
2022-11-19T22:45:47.338Z,30.00
2022-11-19T22:48:35.637Z,31.13
2022-11-19T22:51:24.572Z,32.75
2022-11-19T22:54:11.753Z,31.05
2022-11-19T22:56:58.804Z,32.45
2022-11-19T22:59:45.759Z,33.30
2022-11-19T23:02:34.321Z,31.38
2022-11-19T23:05:21.250Z,31.23
2022-11-19T23:08:10.591Z,32.03
2022-11-19T23:11:03.920Z,31.30
2022-11-19T23:13:50.824Z,30.77
2022-11-19T23:16:38.432Z,31.65
2022-11-19T23:19:25.499Z,31.40
2022-11-19T23:22:12.616Z,31.10
2022-11-19T23:24:59.538Z,34.20
2022-11-19T23:27:46.456Z,35.15
2022-11-19T23:30:33.913Z,29.88
2022-11-19T23:33:22.153Z,28.40
2022-11-19T23:36:12.880Z,29.70
2022-11-19T23:39:00.775Z,32.10
2022-11-19T23:41:47.777Z,30.63
2022-11-19T23:44:34.710Z,29.58
2022-11-19T23:47:21.660Z,30.17
2022-11-19T23:50:08.941Z,29.42
2022-11-19T23:52:55.880Z,30.33
2022-11-19T23:55:50.205Z,28.30
2022-11-19T23:58:37.387Z,31.83
